KRKR

Robert S Kerr Airport

Poteau, Oklahoma, USA
METAR KRKR 160055Z AUTO 00000KT 10SM CLR 05/03 A3018 RMK AO2
Observed Flight Rules
Dec-16 @ 00:55 UTC (20 minutes ago) Visual Flight Rules
Visibility Clouds
10 miles
  • Clear skies
Temperatures Readings
Current 5°C / 41°F
Dewpoint 3°C / 37°F
Humidity 87%
Altimeter 30.18" Hg
Pressure 1022 hPa
Elevation 138
METAR KRKR 160055Z AUTO 00000KT 10SM CLR 05/03 A3018 RMK AO2
Observed Flight Rules
Dec-16 @ 00:55 UTC
(20 minutes ago)
VFR
Clouds
  • Clear skies
Temperature Dewpoint
5°C / 41°F 3°C / 37°F
Humidity Altimeter Pressure
87% 30.18" Hg 1022 hPa